Terminal Aerodrome Forecast
Issued by NWS

Home | Current Version | Previous Version | Text Only | Print | Product List | Glossary On
Versions: 1 2 3 4 5 6 7 8 9 10 11 12 13 14 15 16 17 18
000
FTUS42 KRAH 210520
TAFRWI
TAF
KRWI 210520Z 2106/2206 20006KT P6SM OVC180
      TEMPO 2108/2112 5SM BR SCT005
     FM211300 VRB05KT P6SM VCSH SCT035 BKN150
     FM211700 VRB05KT P6SM VCTS BKN045CB BKN150 BKN250
     FM212300 VRB04KT P6SM FEW060 BKN200=

USA.gov is the U.S. government's official web portal to all federal, state and local government web resources and services.